Time;durP1;ratioP1;P1;durP2;ratioP2;P2;SDS_P1;SDS_P2;PMS_P1;PMS_P2;Temp;Humidity;BMP_temperature;BMP_pressure;BME280_temperature;BME280_humidity;BME280_pressure;Samples;Min_cycle;Max_cycle;Signal;HPM_P1;HPM_P2
2020/12/21 00:02:16;;;;;;;15.55;7.13;;;;;;;4.19;67.01;94921.84;5012668;28;20482;-69
2020/12/21 00:04:42;;;;;;;13.20;7.30;;;;;;;4.19;66.87;94924.47;5011467;28;20618;-69
2020/12/21 00:07:07;;;;;;;15.68;7.68;;;;;;;4.19;66.70;94927.94;5012476;28;20101;-69
2020/12/21 00:09:33;;;;;;;14.95;7.78;;;;;;;4.19;66.65;94927.13;5011223;28;20499;-69
2020/12/21 00:11:58;;;;;;;16.48;7.30;;;;;;;4.20;66.69;94926.88;5012096;28;20017;-69
2020/12/21 00:14:23;;;;;;;15.52;7.25;;;;;;;4.21;66.79;94925.03;5011239;28;20026;-68
2020/12/21 00:16:51;;;;;;;13.07;6.78;;;;;;;4.21;66.85;94925.03;5011061;28;20025;-68
2020/12/21 00:19:20;;;;;;;14.38;6.70;;;;;;;4.22;66.63;94932.72;5012301;28;20566;-68
2020/12/21 00:21:53;;;;;;;13.23;7.03;;;;;;;4.24;66.64;94929.03;5012265;28;20052;-66
2020/12/21 00:24:20;;;;;;;13.77;5.80;;;;;;;4.27;66.51;94933.81;5012028;28;20026;-66
2020/12/21 00:26:48;;;;;;;14.57;6.57;;;;;;;4.27;66.47;94937.25;5012285;28;20040;-67
2020/12/21 00:29:15;;;;;;;12.45;6.50;;;;;;;4.28;66.26;94935.44;5010789;28;20038;-67
2020/12/21 00:31:40;;;;;;;12.35;6.28;;;;;;;4.31;66.18;94940.19;5010727;28;20018;-67
2020/12/21 00:34:07;;;;;;;12.05;6.10;;;;;;;4.33;65.91;94943.38;5012197;28;20030;-67
2020/12/21 00:36:37;;;;;;;11.60;5.47;;;;;;;4.30;66.15;94947.31;5012085;28;20476;-67
2020/12/21 00:39:05;;;;;;;12.43;6.15;;;;;;;4.30;66.14;94951.81;5010601;28;20033;-68
2020/12/21 00:41:31;;;;;;;12.18;6.15;;;;;;;4.29;66.04;94948.34;5010320;28;20378;-67
2020/12/21 00:43:56;;;;;;;11.48;5.68;;;;;;;4.30;66.06;94943.91;5010557;28;20030;-67
2020/12/21 00:46:24;;;;;;;12.57;6.32;;;;;;;4.29;66.14;94944.91;5010319;28;20034;-67
2020/12/21 00:48:50;;;;;;;11.77;5.85;;;;;;;4.27;66.37;94947.00;5011874;28;20057;-67
2020/12/21 00:51:16;;;;;;;14.50;6.05;;;;;;;4.30;66.08;94946.53;5011288;28;20033;-67
2020/12/21 00:53:43;;;;;;;13.18;6.57;;;;;;;4.30;66.23;94944.69;5011751;28;20036;-67
2020/12/21 00:56:09;;;;;;;12.13;6.22;;;;;;;4.30;66.38;94949.16;5011499;28;20041;-67
2020/12/21 00:58:36;;;;;;;12.10;6.03;;;;;;;4.28;66.23;94948.63;5011465;28;20087;-67
2020/12/21 01:01:04;;;;;;;14.60;6.05;;;;;;;4.28;66.21;94944.13;5010251;28;20061;-67
2020/12/21 01:03:30;;;;;;;12.10;6.07;;;;;;;4.26;66.23;94951.50;5011695;28;20076;-67
2020/12/21 01:05:56;;;;;;;10.43;5.00;;;;;;;4.24;66.08;94952.78;5009756;28;20560;-67
2020/12/21 01:08:22;;;;;;;14.38;5.80;;;;;;;4.25;65.76;94952.53;5011392;28;20088;-67
2020/12/21 01:10:48;;;;;;;9.98;4.75;;;;;;;4.25;65.55;94951.75;5009930;28;20481;-68
2020/12/21 01:13:14;;;;;;;8.40;4.50;;;;;;;4.25;65.59;94939.34;5011133;28;20022;-68
2020/12/21 01:15:40;;;;;;;9.57;4.80;;;;;;;4.22;65.43;94942.47;5011359;28;20161;-67
2020/12/21 01:18:05;;;;;;;10.88;5.35;;;;;;;4.24;65.62;94947.53;5011152;28;20512;-67
2020/12/21 01:20:31;;;;;;;10.52;5.97;;;;;;;4.22;65.41;94943.28;5009818;28;20041;-67
2020/12/21 01:22:56;;;;;;;9.15;4.80;;;;;;;4.25;65.39;94943.81;5011104;28;20120;-67
2020/12/21 01:25:22;;;;;;;8.20;5.05;;;;;;;4.26;65.39;94937.50;5009995;28;20037;-67
2020/12/21 01:27:47;;;;;;;9.68;4.82;;;;;;;4.27;65.23;94939.09;5011279;28;20036;-67
2020/12/21 01:30:13;;;;;;;9.23;5.30;;;;;;;4.27;65.27;94950.44;5010803;28;20026;-67
2020/12/21 01:32:38;;;;;;;12.32;5.18;;;;;;;4.27;65.32;94941.72;5010586;28;20025;-67
2020/12/21 01:35:04;;;;;;;10.07;5.18;;;;;;;4.25;65.47;94941.19;5010822;28;20409;-68
2020/12/21 01:37:29;;;;;;;11.25;4.80;;;;;;;4.23;65.57;94944.06;5008398;28;20405;-68
2020/12/21 01:39:55;;;;;;;9.52;5.10;;;;;;;4.26;65.42;94943.59;5011190;28;20041;-68
2020/12/21 01:42:20;;;;;;;11.55;5.38;;;;;;;4.25;65.60;94933.25;5010582;28;20049;-68
2020/12/21 01:44:49;;;;;;;11.35;5.25;;;;;;;4.26;65.47;94940.16;5009438;28;20022;-68
2020/12/21 01:47:19;;;;;;;16.48;5.30;;;;;;;4.24;65.54;94943.03;5010600;28;20030;-68
2020/12/21 01:49:45;;;;;;;10.38;5.65;;;;;;;4.25;65.58;94941.97;5010677;28;20401;-68
2020/12/21 01:52:14;;;;;;;10.70;5.78;;;;;;;4.26;65.65;94945.44;5010655;28;20053;-68
2020/12/21 01:54:40;;;;;;;9.50;4.85;;;;;;;4.28;65.23;94936.22;5010417;28;20092;-68
2020/12/21 01:57:05;;;;;;;10.52;5.75;;;;;;;4.28;65.37;94940.69;5010503;28;20033;-68
2020/12/21 01:59:31;;;;;;;10.35;5.05;;;;;;;4.29;65.36;94939.66;5010611;28;20018;-68
2020/12/21 02:01:57;;;;;;;10.07;5.68;;;;;;;4.26;65.67;94938.31;5010415;28;20112;-68
2020/12/21 02:04:22;;;;;;;12.48;6.25;;;;;;;4.26;65.54;94938.31;5008951;28;20390;-68
2020/12/21 02:06:48;;;;;;;10.75;5.32;;;;;;;4.23;65.68;94936.13;5010417;28;20044;-68
2020/12/21 02:09:14;;;;;;;10.00;5.22;;;;;;;4.24;65.54;94926.41;5010685;28;20033;-68
2020/12/21 02:11:43;;;;;;;12.77;5.50;;;;;;;4.22;65.81;94937.19;5010427;28;20478;-68
2020/12/21 02:14:09;;;;;;;13.10;5.97;;;;;;;4.22;65.63;94931.94;5010381;28;20037;-68
2020/12/21 02:16:36;;;;;;;13.30;6.50;;;;;;;4.24;65.44;94929.84;5008893;28;20029;-68
2020/12/21 02:19:02;;;;;;;10.35;4.95;;;;;;;4.29;65.32;94935.16;5008814;28;20532;-68
2020/12/21 02:21:27;;;;;;;10.52;5.50;;;;;;;4.26;65.30;94926.97;5010202;28;20097;-68
2020/12/21 02:23:52;;;;;;;12.18;5.85;;;;;;;4.27;65.38;94931.97;5009948;28;20064;-68
2020/12/21 02:26:18;;;;;;;9.60;5.60;;;;;;;4.23;65.61;94925.59;5008884;28;20121;-69
2020/12/21 02:28:50;;;;;;;12.25;5.45;;;;;;;4.23;65.79;94922.94;5010255;28;20041;-68
2020/12/21 02:31:15;;;;;;;;;;;;;;;4.22;65.63;94924.78;5009433;28;20478;-68
2020/12/21 02:33:41;;;;;;;10.35;5.10;;;;;;;4.17;66.06;94922.13;5009924;28;19913;-68
2020/12/21 02:36:07;;;;;;;10.20;5.38;;;;;;;4.18;65.77;94922.91;5010083;28;20092;-68
2020/12/21 02:38:32;;;;;;;14.63;5.53;;;;;;;4.21;65.94;94922.41;5010064;28;20026;-68
2020/12/21 02:40:57;;;;;;;10.70;5.35;;;;;;;4.19;65.71;94922.66;5008706;28;20457;-68
2020/12/21 02:43:23;;;;;;;10.98;5.20;;;;;;;4.18;65.88;94918.41;5008663;28;20050;-68
2020/12/21 02:45:49;;;;;;;13.00;6.18;;;;;;;4.19;65.96;94922.66;5008616;28;20495;-68
2020/12/21 02:48:15;;;;;;;12.00;5.85;;;;;;;4.21;66.03;94922.41;5008701;28;20034;-68
2020/12/21 02:50:41;;;;;;;12.27;5.32;;;;;;;4.21;65.52;94920.56;5009848;28;20044;-68
2020/12/21 02:53:06;;;;;;;11.85;5.35;;;;;;;4.20;65.82;94918.19;5009806;28;20037;-69
2020/12/21 02:55:31;;;;;;;11.07;6.22;;;;;;;4.18;66.07;94915.00;5009993;28;20548;-68
2020/12/21 02:57:57;;;;;;;11.23;5.50;;;;;;;4.18;66.16;94915.00;5010019;28;20559;-68
2020/12/21 03:00:22;;;;;;;10.70;5.53;;;;;;;4.20;65.92;94924.25;5009819;28;20033;-68
2020/12/21 03:02:48;;;;;;;10.57;5.68;;;;;;;4.21;66.15;94923.22;5009854;28;20026;-68
2020/12/21 03:05:13;;;;;;;13.32;5.70;;;;;;;4.23;65.69;94922.94;5010492;28;20025;-68
2020/12/21 03:07:39;;;;;;;11.77;5.80;;;;;;;4.27;65.73;94917.97;5013719;28;20037;-68
2020/12/21 03:10:04;;;;;;;14.15;6.03;;;;;;;4.25;65.79;94914.78;5013691;28;20034;-68
2020/12/21 03:12:30;;;;;;;12.82;5.32;;;;;;;4.22;65.74;94921.38;5012275;28;20030;-68
2020/12/21 03:14:55;;;;;;;13.45;6.68;;;;;;;4.24;65.97;94929.03;5013632;28;20448;-68
2020/12/21 03:17:21;;;;;;;12.90;5.97;;;;;;;4.22;66.20;94930.06;5013546;28;20050;-68
2020/12/21 03:19:46;;;;;;;11.63;5.28;;;;;;;4.19;65.79;94935.84;5013463;28;20389;-67
2020/12/21 03:22:12;;;;;;;17.58;6.25;;;;;;;4.13;65.92;94938.66;5013609;28;20029;-67
2020/12/21 03:24:38;;;;;;;13.65;5.57;;;;;;;4.10;66.52;94934.69;5013476;28;20029;-67
2020/12/21 03:27:04;;;;;;;12.98;6.47;;;;;;;4.04;66.08;94933.03;5013406;28;20057;-68
2020/12/21 03:29:30;;;;;;;13.85;6.15;;;;;;;3.98;66.36;94932.16;5013370;28;20025;-68
2020/12/21 03:31:55;;;;;;;13.52;6.15;;;;;;;3.96;66.28;94925.53;5013030;28;20545;-67
2020/12/21 03:34:21;;;;;;;14.13;6.90;;;;;;;3.95;66.12;94919.47;5013453;28;20030;-67
2020/12/21 03:36:46;;;;;;;16.58;5.82;;;;;;;3.98;66.76;94923.44;5013095;28;20033;-68
2020/12/21 03:39:12;;;;;;;11.23;5.63;;;;;;;3.98;67.18;94918.19;5012887;28;20191;-67
2020/12/21 03:41:37;;;;;;;12.23;6.88;;;;;;;4.04;67.28;94908.50;5012907;28;20035;-68
2020/12/21 03:44:03;;;;;;;11.60;5.82;;;;;;;4.07;66.51;94915.91;5013095;28;20104;-68
2020/12/21 03:46:28;;;;;;;11.88;5.22;;;;;;;4.03;66.65;94915.63;5013076;28;20028;-68
2020/12/21 03:48:54;;;;;;;15.52;6.10;;;;;;;3.96;66.73;94922.91;5012856;28;20029;-68
2020/12/21 03:51:19;;;;;;;11.90;6.03;;;;;;;3.94;66.93;94923.13;5013099;28;20083;-68
2020/12/21 03:53:45;;;;;;;13.98;6.15;;;;;;;3.99;66.91;94917.94;5012901;28;20462;-68
2020/12/21 03:56:10;;;;;;;12.60;6.57;;;;;;;3.98;67.20;94911.06;5012803;28;20030;-68
2020/12/21 03:58:36;;;;;;;17.77;6.68;;;;;;;3.96;67.13;94917.63;5011453;28;20048;-68
2020/12/21 04:01:01;;;;;;;13.77;5.93;;;;;;;4.00;67.05;94918.72;5012523;28;20017;-68
2020/12/21 04:03:28;;;;;;;14.45;6.18;;;;;;;4.02;67.29;94919.28;5012837;28;20026;-68
2020/12/21 04:05:53;;;;;;;13.10;6.95;;;;;;;4.07;67.27;94916.72;5012698;28;20493;-68
2020/12/21 04:08:19;;;;;;;13.52;6.43;;;;;;;4.13;67.09;94922.81;5012614;28;20064;-68
2020/12/21 04:10:46;;;;;;;14.70;6.80;;;;;;;4.16;67.03;94919.72;5012538;28;20025;-68
2020/12/21 04:13:12;;;;;;;13.55;6.68;;;;;;;4.14;67.14;94919.94;5012480;28;20053;-68
2020/12/21 04:15:37;;;;;;;12.85;7.47;;;;;;;4.12;67.33;94921.25;5012219;28;20045;-68
2020/12/21 04:18:03;;;;;;;12.35;5.95;;;;;;;4.15;67.08;94926.84;5010791;28;20034;-67
2020/12/21 04:20:28;;;;;;;11.77;5.93;;;;;;;4.19;66.88;94927.94;5011010;28;20030;-67
2020/12/21 04:22:53;;;;;;;13.35;5.90;;;;;;;4.18;66.04;94918.41;5012472;28;20037;-67
2020/12/21 04:25:19;;;;;;;18.10;6.65;;;;;;;4.15;66.28;94920.75;5012226;28;20028;-67
2020/12/21 04:27:44;;;;;;;14.45;6.55;;;;;;;4.12;66.02;94900.94;5012357;28;20048;-68
2020/12/21 04:30:10;;;;;;;15.23;6.10;;;;;;;4.11;66.38;94902.00;5012084;28;20463;-68
2020/12/21 04:32:35;;;;;;;14.45;6.60;;;;;;;4.11;66.91;94914.38;5010780;28;20113;-68
2020/12/21 04:35:01;;;;;;;13.45;6.70;;;;;;;4.13;66.63;94917.56;5012195;28;20026;-68
2020/12/21 04:37:26;;;;;;;17.92;7.15;;;;;;;4.13;66.83;94907.00;5010606;28;20084;-67
2020/12/21 04:39:52;;;;;;;11.02;5.93;;;;;;;4.14;67.01;94908.59;5012334;28;20033;-68
2020/12/21 04:42:17;;;;;;;15.15;6.93;;;;;;;4.16;66.84;94914.44;5011933;28;20136;-68
2020/12/21 04:44:43;;;;;;;15.93;7.30;;;;;;;4.15;67.07;94926.03;5011852;28;20076;-68
2020/12/21 04:47:09;;;;;;;17.15;7.03;;;;;;;4.21;66.87;94925.03;5011969;28;20118;-68
2020/12/21 04:49:36;;;;;;;12.55;6.38;;;;;;;4.28;66.88;94919.59;5011730;28;20026;-69
2020/12/21 04:52:06;;;;;;;18.08;6.70;;;;;;;4.34;66.37;94918.59;5011917;28;20095;-69
2020/12/21 04:54:32;;;;;;;15.93;6.47;;;;;;;4.38;65.82;94914.41;5011690;28;20511;-69
2020/12/21 04:56:59;;;;;;;12.98;7.20;;;;;;;4.38;66.08;94906.50;5010576;28;20129;-69
2020/12/21 04:59:24;;;;;;;15.00;6.57;;;;;;;4.42;65.82;94910.25;5010377;28;20105;-68
2020/12/21 05:01:49;;;;;;;16.50;6.85;;;;;;;4.45;66.55;94904.44;5011738;28;20109;-68
2020/12/21 05:04:15;;;;;;;15.65;5.93;;;;;;;4.43;66.24;94909.19;5010435;28;20088;-68
2020/12/21 05:06:54;;;;;;;16.25;7.05;;;;;;;4.37;66.52;94918.88;5010292;28;20033;-68
2020/12/21 05:09:24;;;;;;;12.98;7.07;;;;;;;4.33;67.07;94922.28;5011627;28;20034;-68
2020/12/21 05:12:03;;;;;;;15.60;6.82;;;;;;;4.18;66.56;94923.69;5011339;28;20036;-68
2020/12/21 05:14:33;;;;;;;17.08;7.03;;;;;;;4.03;67.34;94923.53;5011377;28;20026;-68
2020/12/21 05:17:12;;;;;;;14.60;6.15;;;;;;;3.90;68.53;94929.16;5011383;28;20155;-68
2020/12/21 05:19:39;;;;;;;14.88;6.82;;;;;;;3.76;68.49;94921.59;5011099;28;20065;-68
2020/12/21 05:22:21;;;;;;;15.00;7.00;;;;;;;3.67;68.88;94930.19;5011216;28;20029;-68
2020/12/21 05:24:46;;;;;;;13.57;6.55;;;;;;;3.59;69.55;94926.13;5011194;28;20116;-69
2020/12/21 05:27:16;;;;;;;15.20;6.72;;;;;;;3.54;70.31;94932.13;5009674;28;20137;-68
2020/12/21 05:29:42;;;;;;;14.45;6.60;;;;;;;3.47;70.18;94928.84;5010511;28;20030;-68
2020/12/21 05:32:21;;;;;;;15.32;6.60;;;;;;;3.40;70.26;94918.47;5011143;28;20427;-68
2020/12/21 05:34:47;;;;;;;16.67;6.80;;;;;;;3.38;70.62;94920.56;5010779;28;20036;-69
2020/12/21 05:37:17;;;;;;;15.90;7.38;;;;;;;3.41;70.38;94914.78;5009740;28;20038;-69
2020/12/21 05:39:52;;;;;;;16.58;7.30;;;;;;;3.45;70.38;94930.94;5009629;28;20500;-69
2020/12/21 05:42:18;;;;;;;16.00;7.47;;;;;;;3.47;70.29;94922.78;5009206;28;20038;-69
2020/12/21 05:44:55;;;;;;;17.05;7.65;;;;;;;3.53;69.95;94924.44;5010779;28;20088;-68
2020/12/21 05:47:22;;;;;;;19.20;7.55;;;;;;;3.55;70.03;94933.69;5008528;28;20033;-68
2020/12/21 05:49:59;;;;;;;14.68;7.75;;;;;;;3.59;69.97;94934.03;5008773;28;20413;-68
2020/12/21 05:52:38;;;;;;;16.50;7.57;;;;;;;3.63;69.40;94929.88;5008634;28;20029;-68
2020/12/21 05:55:11;;;;;;;16.30;7.28;;;;;;;3.65;69.14;94937.53;5009973;28;20057;-68
2020/12/21 05:57:39;;;;;;;16.88;7.30;;;;;;;3.65;69.16;94932.25;5009924;28;20049;-68
2020/12/21 06:00:08;;;;;;;21.50;8.43;;;;;;;3.62;69.28;94933.53;5009793;28;20045;-68
2020/12/21 06:02:33;;;;;;;19.20;8.00;;;;;;;3.62;69.70;94933.53;5008563;28;20029;-69
2020/12/21 06:05:05;;;;;;;18.88;7.72;;;;;;;3.67;69.32;94928.34;5008798;28;20026;-68
2020/12/21 06:07:32;;;;;;;21.67;8.70;;;;;;;3.72;69.71;94933.66;5008586;28;20048;-68
2020/12/21 06:10:00;;;;;;;16.92;8.07;;;;;;;3.76;69.53;94937.41;5010171;28;20030;-68
2020/12/21 06:12:28;;;;;;;18.42;8.05;;;;;;;3.87;69.24;94938.38;5008434;28;20421;-68
2020/12/21 06:15:02;;;;;;;18.08;9.35;;;;;;;3.98;68.94;94937.44;5009754;28;20407;-68
2020/12/21 06:17:30;;;;;;;17.38;7.38;;;;;;;4.07;68.67;94929.09;5009749;28;20107;-68
2020/12/21 06:20:03;;;;;;;21.90;8.23;;;;;;;4.13;68.70;94936.84;5009674;28;20017;-68
2020/12/21 06:22:29;;;;;;;14.30;7.47;;;;;;;4.15;68.25;94932.13;5009498;28;20022;-68
2020/12/21 06:24:54;;;;;;;20.30;8.70;;;;;;;4.19;68.16;94930.59;5009496;28;20402;-68
2020/12/21 06:27:20;;;;;;;17.88;9.23;;;;;;;4.20;68.13;94929.53;5008264;28;20030;-68
2020/12/21 06:29:45;;;;;;;28.40;10.18;;;;;;;4.20;67.75;94932.16;5009652;28;20025;-68
2020/12/21 06:32:12;;;;;;;20.65;9.70;;;;;;;4.19;67.95;94927.94;5009303;28;20026;-68
2020/12/21 06:34:38;;;;;;;20.30;8.98;;;;;;;4.21;67.56;94928.50;5009323;28;20065;-68
2020/12/21 06:37:06;;;;;;;27.15;10.82;;;;;;;4.23;67.54;94933.50;5008212;28;20038;-68
2020/12/21 06:39:33;;;;;;;19.73;8.65;;;;;;;4.28;67.54;94938.06;5009126;28;20087;-69
2020/12/21 06:42:10;;;;;;;18.77;8.80;;;;;;;4.30;67.53;94939.41;4983421;28;757328;-69
2020/12/21 06:44:38;;;;;;;21.55;8.15;;;;;;;4.33;67.60;94932.81;5009817;28;20042;-69
2020/12/21 06:47:05;;;;;;;16.30;8.30;;;;;;;4.36;67.57;94937.63;5010068;28;20440;-69
2020/12/21 06:49:30;;;;;;;23.60;10.65;;;;;;;4.38;67.01;94936.31;5008564;28;20061;-69
2020/12/21 06:51:56;;;;;;;20.80;9.07;;;;;;;4.40;67.00;94944.78;5009833;28;20520;-69
2020/12/21 06:54:21;;;;;;;20.80;9.23;;;;;;;4.42;66.57;94941.91;5008736;28;20053;-69
2020/12/21 06:56:49;;;;;;;19.15;9.82;;;;;;;4.42;66.69;94944.56;5008435;28;20061;-69
2020/12/21 06:59:19;;;;;;;28.58;11.23;;;;;;;4.45;66.65;94951.97;5009705;28;20033;-69
2020/12/21 07:01:46;;;;;;;23.27;9.07;;;;;;;4.48;66.74;94940.09;5009636;28;20029;-69
2020/12/21 07:04:29;;;;;;;20.73;10.18;;;;;;;4.50;66.43;94949.41;5009792;28;20104;-69
2020/12/21 07:06:55;;;;;;;;;;;;;;;4.54;66.37;94950.50;5008835;28;20069;-69
2020/12/21 07:09:35;;;;;;;15.82;8.10;;;;;;;4.54;66.36;94937.28;5009811;28;20000;-69
2020/12/21 07:12:01;;;;;;;20.35;10.40;;;;;;;4.56;66.52;94937.84;5009654;28;20081;-69
2020/12/21 07:14:34;;;;;;;19.70;8.82;;;;;;;4.56;66.56;94942.31;5009872;28;20036;-69
2020/12/21 07:17:10;;;;;;;20.30;9.05;;;;;;;4.61;66.29;94939.72;5009480;28;20560;-69
2020/12/21 07:19:38;;;;;;;16.23;8.43;;;;;;;4.63;66.19;94946.34;5009708;28;20045;-69
2020/12/21 07:22:05;;;;;;;19.42;8.38;;;;;;;4.66;66.09;94936.34;5009695;28;20479;-68
2020/12/21 07:24:31;;;;;;;15.18;7.85;;;;;;;4.70;66.11;94943.53;5009640;28;20040;-69
2020/12/21 07:26:57;;;;;;;20.70;8.85;;;;;;;4.74;65.91;94949.91;5009508;28;20101;-69
2020/12/21 07:29:22;;;;;;;17.92;7.97;;;;;;;4.76;65.97;94957.56;5008194;28;20030;-69
2020/12/21 07:31:49;;;;;;;20.05;8.35;;;;;;;4.79;65.90;94952.59;5009436;28;20490;-69
2020/12/21 07:34:15;;;;;;;16.77;8.98;;;;;;;4.79;65.81;94962.38;5007994;28;20029;-69
2020/12/21 07:36:40;;;;;;;23.50;10.23;;;;;;;4.78;65.52;94956.28;5008322;28;20392;-69
2020/12/21 07:39:14;;;;;;;21.38;9.30;;;;;;;4.83;65.90;94958.19;5009278;28;20026;-69
2020/12/21 07:41:43;;;;;;;24.50;9.50;;;;;;;4.86;65.67;94957.66;5007996;28;20018;-69
2020/12/21 07:44:14;;;;;;;19.10;9.25;;;;;;;4.91;65.26;94949.78;5006773;28;20140;-69
2020/12/21 07:46:55;;;;;;;23.48;10.40;;;;;;;4.97;64.96;94951.44;5008114;28;20030;-69
2020/12/21 07:49:21;;;;;;;21.37;9.07;;;;;;;5.02;64.40;94956.75;5009350;28;20127;-69
2020/12/21 07:51:47;;;;;;;19.73;9.48;;;;;;;5.06;64.19;94958.91;5010799;28;20098;-68
2020/12/21 07:54:13;;;;;;;22.65;8.10;;;;;;;5.05;64.30;94952.84;5012614;28;20025;-68
2020/12/21 07:56:42;;;;;;;18.10;8.30;;;;;;;5.08;63.19;94951.53;5011507;28;20038;-68
2020/12/21 07:59:15;;;;;;;22.17;8.98;;;;;;;5.10;63.50;94944.16;5012541;28;20021;-68
2020/12/21 08:01:41;;;;;;;19.27;8.70;;;;;;;5.08;63.95;94954.16;5011342;28;20037;-68
2020/12/21 08:04:15;;;;;;;19.38;9.55;;;;;;;5.09;63.27;94948.63;5012476;28;20026;-68
2020/12/21 08:06:41;;;;;;;23.83;10.13;;;;;;;5.09;63.14;94945.19;5011414;28;20032;-69
2020/12/21 08:09:08;;;;;;;27.20;9.65;;;;;;;5.01;63.35;94944.59;5010804;28;20548;-69
2020/12/21 08:11:35;;;;;;;35.75;8.35;;;;;;;4.98;63.05;94952.22;5010811;28;20038;-70
2020/12/21 08:14:10;;;;;;;21.48;7.88;;;;;;;4.91;63.31;94955.09;5012126;28;20413;-69
2020/12/21 08:16:44;;;;;;;24.98;9.48;;;;;;;4.93;63.79;94962.78;5010803;28;20030;-69
2020/12/21 08:19:21;;;;;;;33.65;9.32;;;;;;;4.94;63.95;94962.50;5012409;28;20401;-69
2020/12/21 08:21:50;;;;;;;15.63;7.10;;;;;;;4.97;63.06;94958.56;5012442;28;20024;-69
2020/12/21 08:24:16;;;;;;;12.38;6.22;;;;;;;4.99;61.79;94959.91;5012099;28;20026;-68
2020/12/21 08:26:42;;;;;;;20.73;9.77;;;;;;;4.99;61.86;94959.91;5012331;28;20022;-68
2020/12/21 08:29:07;;;;;;;18.35;7.25;;;;;;;4.99;61.71;94959.13;5010654;28;20036;-69
2020/12/21 08:31:43;;;;;;;17.90;6.88;;;;;;;4.89;61.92;94957.19;5011920;28;20489;-69
2020/12/21 08:34:09;;;;;;;15.35;5.18;;;;;;;4.88;60.53;94958.22;5011727;28;20408;-69
2020/12/21 08:36:36;;;;;;;13.50;6.47;;;;;;;4.94;59.93;94949.28;5010318;28;20025;-68
2020/12/21 08:39:06;;;;;;;12.98;5.82;;;;;;;4.90;60.36;94953.47;5011835;28;20026;-69
2020/12/21 08:41:37;;;;;;;12.73;5.72;;;;;;;4.81;59.97;94950.50;5010078;28;20036;-68
2020/12/21 08:44:07;;;;;;;11.70;5.50;;;;;;;4.72;60.66;94946.72;5011702;28;20117;-68
2020/12/21 08:46:33;;;;;;;13.57;5.63;;;;;;;4.76;60.79;94947.00;5011485;28;20068;-68
2020/12/21 08:48:58;;;;;;;17.15;5.85;;;;;;;4.79;60.92;94949.16;5011569;28;20474;-68
2020/12/21 08:51:24;;;;;;;10.88;5.60;;;;;;;4.80;61.22;94950.75;5011363;28;20127;-68
2020/12/21 08:53:50;;;;;;;10.50;5.40;;;;;;;4.83;60.73;94943.13;5011183;28;20029;-71
2020/12/21 08:56:16;;;;;;;12.65;5.53;;;;;;;4.86;60.93;94946.31;5011601;28;20025;-71
2020/12/21 08:58:41;;;;;;;12.48;6.20;;;;;;;4.90;60.70;94942.91;5011336;28;20095;-73
2020/12/21 09:01:08;;;;;;;16.13;6.55;;;;;;;4.92;60.48;94935.53;5011267;28;20053;-72
2020/12/21 09:03:34;;;;;;;10.50;6.40;;;;;;;4.85;60.62;94936.81;5008675;28;20078;-73
2020/12/21 09:06:00;;;;;;;17.00;5.72;;;;;;;4.81;60.82;94939.13;5011242;28;20076;-74
2020/12/21 09:09:02;;;;;;;;;;;;;;;;;;;;;
2020/12/21 09:11:36;;;;;;;14.43;6.38;;;;;;;4.76;61.25;94941.72;5011022;28;20071;-70
2020/12/21 09:14:09;;;;;;;21.75;8.13;;;;;;;4.78;61.04;94929.88;5010791;28;20034;-70
2020/12/21 09:16:38;;;;;;;17.50;6.75;;;;;;;4.77;61.04;94930.91;5010853;28;20026;-70
2020/12/21 09:19:03;;;;;;;16.45;5.70;;;;;;;4.77;61.05;94930.13;5010601;28;20042;-70
2020/12/21 09:21:30;;;;;;;15.13;6.50;;;;;;;4.75;61.31;94930.38;5010998;28;20033;-69
2020/12/21 09:23:58;;;;;;;15.95;6.95;;;;;;;4.74;61.72;94920.03;5010412;28;20037;-72
2020/12/21 09:26:26;;;;;;;12.20;6.75;;;;;;;4.72;61.84;94927.41;5011032;28;20080;-71
2020/12/21 09:28:53;;;;;;;16.30;7.25;;;;;;;4.78;61.95;94923.78;5010449;28;20025;-71
2020/12/21 09:31:20;;;;;;;15.05;7.38;;;;;;;4.78;61.76;94918.50;5009096;28;20026;-72
2020/12/21 09:33:50;;;;;;;21.38;7.70;;;;;;;4.76;61.79;94915.31;5010362;28;20025;-71
2020/12/21 09:36:17;;;;;;;13.48;7.15;;;;;;;4.78;62.08;94921.94;5009037;28;20477;-72
2020/12/21 09:41:37;;;;;;;18.05;7.20;;;;;;;4.77;61.47;94912.41;4999080;28;20497;-71
2020/12/21 09:44:07;;;;;;;23.60;8.70;;;;;;;4.75;61.98;94917.16;5010223;28;20033;-72
2020/12/21 09:46:33;;;;;;;14.52;7.57;;;;;;;4.75;61.63;94913.72;5008988;28;20048;-72
2020/12/21 09:49:03;;;;;;;17.02;8.10;;;;;;;4.67;61.67;94917.59;5010266;28;20112;-72
2020/12/21 09:51:28;;;;;;;15.48;8.15;;;;;;;4.65;61.55;94913.63;5008581;28;20449;-69
2020/12/21 09:53:54;;;;;;;18.83;7.80;;;;;;;4.57;62.33;94910.38;5008646;28;20030;-69
2020/12/21 09:56:19;;;;;;;20.50;9.70;;;;;;;4.54;62.64;94902.97;5010096;28;20042;-69
2020/12/21 09:58:46;;;;;;;17.73;8.20;;;;;;;4.49;62.82;94905.53;5010004;28;20444;-71
2020/12/21 10:01:11;;;;;;;15.98;8.18;;;;;;;4.43;62.49;94890.69;5009985;28;20100;-70
2020/12/21 10:03:38;;;;;;;19.85;9.55;;;;;;;4.45;62.39;94896.53;5007177;28;20117;-70
2020/12/21 10:06:06;;;;;;;18.65;9.30;;;;;;;4.45;62.72;94899.16;5008750;28;20523;-70
2020/12/21 10:08:31;;;;;;;29.17;10.25;;;;;;;4.38;62.51;94894.09;5009517;28;20022;-70
2020/12/21 10:10:57;;;;;;;22.40;9.80;;;;;;;4.27;63.52;94897.66;5007279;28;20026;-70
2020/12/21 10:13:22;;;;;;;21.23;9.65;;;;;;;4.20;63.96;94887.31;5009453;28;20033;-70
2020/12/21 10:15:48;;;;;;;18.25;9.63;;;;;;;4.21;63.95;94901.28;5009509;28;20515;-70
2020/12/21 10:18:13;;;;;;;16.30;8.43;;;;;;;4.17;63.72;94901.00;5009391;28;20465;-70
2020/12/21 10:20:39;;;;;;;19.85;9.50;;;;;;;4.19;64.37;94906.84;5008488;28;20117;-70
2020/12/21 10:23:04;;;;;;;24.67;10.18;;;;;;;4.28;63.71;94898.47;5008831;28;20033;-70
2020/12/21 10:25:29;;;;;;;20.15;9.25;;;;;;;4.36;63.69;94890.91;5006883;28;21094;-71
2020/12/21 10:27:55;;;;;;;23.30;9.98;;;;;;;4.42;63.06;94878.56;5009779;28;20024;-70
2020/12/21 10:30:20;;;;;;;19.42;9.18;;;;;;;4.51;62.91;94887.63;5009239;28;20117;-70
2020/12/21 10:32:46;;;;;;;16.75;9.40;;;;;;;4.53;62.93;94882.88;5009158;28;20026;-76
2020/12/21 10:35:12;;;;;;;28.50;10.85;;;;;;;4.52;63.03;94883.94;5008751;28;20038;-76
2020/12/21 10:37:37;;;;;;;22.48;9.73;;;;;;;4.65;62.62;94879.31;5009243;28;20037;-75
2020/12/21 10:40:04;;;;;;;20.20;9.70;;;;;;;4.73;61.90;94871.72;5010009;28;20044;-77
2020/12/21 10:42:30;;;;;;;20.90;9.63;;;;;;;4.80;61.79;94866.22;5010131;28;20357;-76
2020/12/21 10:44:55;;;;;;;17.90;8.85;;;;;;;4.88;61.68;94870.25;5008642;28;20120;-76
2020/12/21 10:47:21;;;;;;;21.73;10.13;;;;;;;4.88;61.70;94864.97;5010041;28;20026;-76
2020/12/21 10:49:47;;;;;;;20.30;9.85;;;;;;;4.80;61.63;94860.94;5007191;28;20124;-76
2020/12/21 10:52:12;;;;;;;18.70;9.48;;;;;;;4.88;61.52;94859.69;5009103;28;20092;-76
2020/12/21 10:54:38;;;;;;;22.75;10.23;;;;;;;4.97;61.32;94847.59;5008866;28;20409;-76
2020/12/21 10:57:06;;;;;;;22.02;10.70;;;;;;;4.96;61.79;94848.63;5010239;28;20044;-76
2020/12/21 10:59:31;;;;;;;18.45;10.05;;;;;;;4.95;61.17;94861.06;5008970;28;20034;-76
2020/12/21 11:01:57;;;;;;;16.95;9.65;;;;;;;5.02;61.02;94864.28;5010232;28;20087;-76
2020/12/21 11:04:22;;;;;;;21.92;11.48;;;;;;;5.06;60.74;94861.13;5010292;28;20068;-76
2020/12/21 11:06:48;;;;;;;26.00;11.38;;;;;;;5.04;60.99;94864.03;5008693;28;20026;-77
2020/12/21 11:09:13;;;;;;;17.55;9.88;;;;;;;4.82;60.86;94877.31;5009075;28;20247;-76
2020/12/21 11:11:39;;;;;;;24.27;11.77;;;;;;;4.73;61.84;94863.00;5008911;28;20037;-76
2020/12/21 11:14:04;;;;;;;23.60;10.85;;;;;;;4.70;61.63;94868.78;5009848;28;20446;-76
2020/12/21 11:16:31;;;;;;;19.08;10.57;;;;;;;4.67;62.19;94875.34;5008906;28;20025;-76
2020/12/21 11:18:57;;;;;;;23.42;11.20;;;;;;;4.66;62.53;94872.97;5008490;28;20026;-77
2020/12/21 11:21:23;;;;;;;27.08;13.98;;;;;;;4.63;62.90;94874.25;5008757;28;20022;-76
2020/12/21 11:23:48;;;;;;;31.90;12.45;;;;;;;4.46;63.48;94869.09;5008711;28;20037;-76
2020/12/21 11:26:14;;;;;;;22.77;11.35;;;;;;;4.35;63.39;94867.38;5009356;28;20021;-76
2020/12/21 11:28:40;;;;;;;26.85;12.88;;;;;;;4.24;63.79;94863.06;5013816;28;20026;-76
2020/12/21 11:31:06;;;;;;;22.58;12.10;;;;;;;4.21;64.16;94875.72;5012123;28;20109;-76
2020/12/21 11:33:31;;;;;;;28.45;14.93;;;;;;;4.04;64.87;94877.63;5012373;28;20365;-76
2020/12/21 11:35:57;;;;;;;33.25;15.93;;;;;;;4.02;65.06;94869.94;5012208;28;20036;-76
2020/12/21 11:38:23;;;;;;;35.20;15.35;;;;;;;4.15;64.88;94857.41;5011946;28;20116;-76